Time;durP1;ratioP1;P1;durP2;ratioP2;P2;SDS_P1;SDS_P2;PMS_P1;PMS_P2;Temp;Humidity;BMP_temperature;BMP_pressure;BME280_temperature;BME280_humidity;BME280_pressure;Samples;Min_cycle;Max_cycle;Signal;HPM_P1;HPM_P2
2022/05/18 00:00:16;;;;;;;1.52;1.00;;;;;;;14.36;100.00;98994.38;4914249;29;20115;-77
2022/05/18 00:02:41;;;;;;;2.97;1.20;;;;;;;14.25;100.00;98995.09;4913036;29;20108;-77
2022/05/18 00:05:08;;;;;;;1.65;1.40;;;;;;;14.23;100.00;99005.84;4913704;29;20051;-78
2022/05/18 00:07:34;;;;;;;1.52;1.15;;;;;;;14.21;100.00;99007.13;4913631;29;20043;-77
2022/05/18 00:10:00;;;;;;;5.88;1.20;;;;;;;14.13;100.00;99008.22;4890121;29;20064;-77
2022/05/18 00:12:26;;;;;;;2.55;1.50;;;;;;;14.08;100.00;99003.59;4914562;29;20036;-77
2022/05/18 00:14:52;;;;;;;5.47;1.40;;;;;;;13.85;100.00;99005.00;4912552;29;20450;-77
2022/05/18 00:17:18;;;;;;;4.15;1.20;;;;;;;14.00;100.00;99017.84;4914363;29;20039;-77
2022/05/18 00:19:43;;;;;;;1.73;0.88;;;;;;;13.68;100.00;99006.59;4913101;29;20044;-77
2022/05/18 00:22:10;;;;;;;4.38;1.40;;;;;;;13.88;100.00;99013.53;4940079;28;20073;-77
2022/05/18 00:24:36;;;;;;;2.00;1.33;;;;;;;13.90;100.00;99022.03;4938164;29;20039;-78
2022/05/18 00:27:03;;;;;;;2.45;1.02;;;;;;;13.84;100.00;99016.59;4914235;29;20457;-77
2022/05/18 00:29:33;;;;;;;1.25;0.95;;;;;;;13.65;100.00;99026.28;4923751;29;20036;-77
2022/05/18 00:32:00;;;;;;;3.60;1.30;;;;;;;13.65;100.00;99021.00;4913181;29;20032;-77
2022/05/18 00:34:26;;;;;;;2.28;1.05;;;;;;;13.71;100.00;99029.88;4914332;29;20059;-77
2022/05/18 00:36:53;;;;;;;3.30;1.40;;;;;;;13.34;100.00;99027.06;4915161;29;20078;-77
2022/05/18 00:39:20;;;;;;;7.28;1.55;;;;;;;13.49;100.00;99032.09;4916441;29;20122;-78
2022/05/18 00:41:46;;;;;;;4.15;1.35;;;;;;;13.65;100.00;99036.03;4917980;29;20038;-77
2022/05/18 00:44:11;;;;;;;2.90;1.17;;;;;;;13.69;100.00;99037.22;4917782;29;20578;-77
2022/05/18 00:46:38;;;;;;;1.38;1.27;;;;;;;13.66;100.00;99048.19;4917616;29;20043;-78
2022/05/18 00:49:07;;;;;;;3.33;1.40;;;;;;;13.64;100.00;99048.38;4900854;29;20036;-77
2022/05/18 00:51:42;;;;;;;1.25;1.10;;;;;;;13.53;100.00;99043.81;4914915;29;20032;-79
2022/05/18 00:54:12;;;;;;;5.55;1.75;;;;;;;13.49;100.00;99047.91;4917562;29;20040;-79
2022/05/18 00:56:52;;;;;;;3.03;1.13;;;;;;;13.48;100.00;99047.09;4917693;29;20036;-77
2022/05/18 00:59:22;;;;;;;5.60;1.50;;;;;;;13.31;100.00;99051.22;4916259;29;20447;-76
2022/05/18 01:01:48;;;;;;;4.50;1.30;;;;;;;13.49;100.00;99059.25;4917306;29;20083;-77
2022/05/18 01:04:15;;;;;;;4.80;1.27;;;;;;;13.52;100.00;99063.31;4917388;29;20028;-77
2022/05/18 01:06:46;;;;;;;3.72;1.10;;;;;;;13.43;100.00;99063.53;4923505;29;20052;-77
2022/05/18 01:09:29;;;;;;;2.42;1.25;;;;;;;13.36;100.00;99064.56;4915160;29;20034;-76
2022/05/18 01:11:55;;;;;;;3.60;1.70;;;;;;;13.19;100.00;99075.63;4908805;29;20053;-77
2022/05/18 01:14:26;;;;;;;2.70;1.27;;;;;;;13.20;100.00;99076.44;4917018;29;20044;-77
2022/05/18 01:16:52;;;;;;;3.47;1.48;;;;;;;13.13;100.00;99071.19;4915927;29;20043;-77
2022/05/18 01:19:46;;;;;;;2.60;1.52;;;;;;;13.23;100.00;99082.09;4915822;29;20040;-78
2022/05/18 01:22:34;;;;;;;1.75;1.10;;;;;;;13.13;100.00;99072.00;4917046;29;20500;-77
2022/05/18 01:25:25;;;;;;;4.40;1.80;;;;;;;13.05;100.00;99071.44;4921993;29;20051;-77
2022/05/18 01:27:52;;;;;;;4.22;1.55;;;;;;;13.19;100.00;99057.19;4905196;29;20463;-77
2022/05/18 01:30:18;;;;;;;4.43;1.15;;;;;;;13.10;100.00;99066.34;4916860;29;20032;-78
2022/05/18 01:32:48;;;;;;;2.78;1.55;;;;;;;13.13;100.00;99060.66;4917106;29;20039;-78
2022/05/18 01:35:21;;;;;;;3.08;1.35;;;;;;;13.13;100.00;99064.09;4915265;29;20044;-78
2022/05/18 01:37:46;;;;;;;4.88;1.40;;;;;;;13.06;100.00;99065.94;4938428;29;20550;-78
2022/05/18 01:40:33;;;;;;;2.67;1.70;;;;;;;13.06;100.00;99071.22;4916767;29;20036;-77
2022/05/18 01:43:31;;;;;;;4.15;1.40;;;;;;;12.97;100.00;99065.41;4915401;29;20080;-77
2022/05/18 01:45:59;;;;;;;5.25;1.55;;;;;;;12.94;100.00;99067.63;4919923;29;20127;-77
2022/05/18 01:48:32;;;;;;;3.10;1.52;;;;;;;12.93;100.00;99056.28;4916270;29;20112;-77
2022/05/18 01:51:03;;;;;;;4.80;1.10;;;;;;;12.84;100.00;99068.09;4915910;29;20032;-80
2022/05/18 01:53:30;;;;;;;2.60;1.45;;;;;;;12.88;100.00;99069.28;4915262;29;20032;-77
2022/05/18 01:55:55;;;;;;;2.60;1.73;;;;;;;12.84;100.00;99070.72;4914892;29;20036;-78
2022/05/18 01:58:22;;;;;;;3.80;1.52;;;;;;;12.75;100.00;99070.13;4916559;29;20032;-77
2022/05/18 02:00:49;;;;;;;3.25;1.60;;;;;;;12.82;100.00;99076.19;4916054;29;20055;-78
2022/05/18 02:03:15;;;;;;;6.25;2.05;;;;;;;12.75;100.00;99075.41;4924225;29;20048;-77
2022/05/18 02:05:42;;;;;;;4.18;1.70;;;;;;;12.71;100.00;99066.31;4914560;29;20110;-79
2022/05/18 02:08:12;;;;;;;6.05;1.38;;;;;;;12.74;100.00;99065.88;4915405;29;20058;-77
2022/05/18 02:10:39;;;;;;;4.15;1.75;;;;;;;12.73;100.00;99071.34;4939437;28;20127;-78
2022/05/18 02:13:05;;;;;;;4.15;1.50;;;;;;;12.68;100.00;99090.44;4940507;29;20110;-80
2022/05/18 02:15:31;;;;;;;4.78;1.40;;;;;;;12.61;100.00;99089.63;4916238;29;20336;-77
2022/05/18 02:17:57;;;;;;;4.90;1.60;;;;;;;12.57;100.00;99086.56;4914916;29;20414;-77
2022/05/18 02:20:23;;;;;;;1.60;1.20;;;;;;;12.56;100.00;99092.84;4914606;29;20080;-80
2022/05/18 02:22:51;;;;;;;4.00;1.60;;;;;;;12.48;100.00;99079.94;4914914;29;20043;-78
2022/05/18 02:25:19;;;;;;;4.93;1.40;;;;;;;12.50;100.00;99097.16;4915516;29;20043;-78
2022/05/18 02:27:45;;;;;;;7.85;1.90;;;;;;;12.45;100.00;99088.25;4914312;29;20103;-79
2022/05/18 02:30:13;;;;;;;6.45;1.70;;;;;;;12.40;100.00;99099.38;4915617;29;20092;-77
2022/05/18 02:32:39;;;;;;;6.07;1.88;;;;;;;12.36;100.00;99098.19;4914162;29;20028;-80
2022/05/18 02:35:05;;;;;;;6.10;2.00;;;;;;;12.32;100.00;99108.28;4912865;29;20028;-77
2022/05/18 02:37:32;;;;;;;3.88;1.90;;;;;;;12.21;100.00;99099.19;4915268;29;20172;-77
2022/05/18 02:40:00;;;;;;;3.92;1.83;;;;;;;12.19;100.00;99108.31;4915521;29;20091;-79
2022/05/18 02:42:26;;;;;;;6.30;2.05;;;;;;;12.25;100.00;99116.19;4914190;29;20073;-80
2022/05/18 02:44:52;;;;;;;6.68;1.88;;;;;;;12.13;100.00;99096.78;4915586;29;20114;-78
2022/05/18 02:47:20;;;;;;;7.13;2.17;;;;;;;12.07;100.00;99111.56;4914058;29;20036;-77
2022/05/18 02:49:46;;;;;;;4.72;2.05;;;;;;;12.08;100.00;99113.16;4919445;29;20075;-77
2022/05/18 02:52:11;;;;;;;5.85;2.22;;;;;;;11.92;100.00;99105.63;4906306;29;20074;-77
2022/05/18 02:57:21;;;;;;;4.05;2.22;;;;;;;12.12;100.00;99103.84;4914146;29;20555;-77
2022/05/18 02:59:47;;;;;;;10.90;2.10;;;;;;;12.08;100.00;99105.28;4913726;29;20044;-77
2022/05/18 03:02:13;;;;;;;5.40;1.90;;;;;;;12.02;100.00;99105.28;4897770;29;20135;-77
2022/05/18 03:04:39;;;;;;;3.88;1.95;;;;;;;11.96;100.00;99109.47;4913883;29;20036;-76
2022/05/18 03:07:07;;;;;;;6.47;2.10;;;;;;;11.98;100.00;99112.72;4923235;29;20493;-78
2022/05/18 03:09:33;;;;;;;7.47;3.22;;;;;;;11.98;100.00;99117.97;4914813;29;20028;-77
2022/05/18 03:11:59;;;;;;;6.63;2.50;;;;;;;11.94;100.00;99122.84;4914974;29;20046;-77
2022/05/18 03:14:25;;;;;;;9.38;2.40;;;;;;;11.87;100.00;99124.66;4914412;29;20391;-77
2022/05/18 03:16:51;;;;;;;4.80;2.05;;;;;;;11.91;100.00;99119.81;4919947;29;20062;-77
2022/05/18 03:19:17;;;;;;;7.25;2.42;;;;;;;11.86;100.00;99121.22;4915319;29;20095;-77
2022/05/18 03:24:27;;;;;;;5.15;2.03;;;;;;;11.81;100.00;99133.34;4912486;29;20047;-77
2022/05/18 03:26:53;;;;;;;5.55;2.45;;;;;;;11.78;100.00;99129.28;4913869;29;20032;-78
2022/05/18 03:29:19;;;;;;;6.55;2.53;;;;;;;11.80;100.00;99121.22;4915252;29;20051;-77
2022/05/18 03:31:47;;;;;;;8.60;2.17;;;;;;;11.87;100.00;99124.66;4914589;29;20475;-77
2022/05/18 03:34:13;;;;;;;6.65;2.35;;;;;;;11.81;100.00;99122.84;4913908;29;20399;-77
2022/05/18 03:36:39;;;;;;;8.77;2.40;;;;;;;11.80;100.00;99143.06;4914792;29;20475;-77
2022/05/18 03:39:06;;;;;;;10.80;2.30;;;;;;;11.81;100.00;99142.06;4920102;29;20029;-77
2022/05/18 03:41:34;;;;;;;6.22;2.25;;;;;;;11.73;100.00;99136.97;4915055;29;20136;-78
2022/05/18 03:44:01;;;;;;;7.97;3.03;;;;;;;11.75;100.00;99150.72;4913519;29;20509;-77
2022/05/18 03:46:27;;;;;;;5.13;2.40;;;;;;;11.76;100.00;99156.81;4914476;29;20032;-77
2022/05/18 03:48:53;;;;;;;7.18;2.40;;;;;;;11.66;100.00;99165.88;4914622;29;20514;-78
2022/05/18 03:51:18;;;;;;;9.48;2.85;;;;;;;11.55;100.00;99175.16;4914704;29;20036;-76
2022/05/18 03:53:46;;;;;;;7.32;2.63;;;;;;;11.52;100.00;99178.19;4913502;29;20095;-76
2022/05/18 03:56:12;;;;;;;9.05;2.90;;;;;;;11.63;100.00;99178.63;4913145;29;20084;-77
2022/05/18 03:58:37;;;;;;;6.75;2.60;;;;;;;11.65;100.00;99187.91;4933221;29;20036;-77
2022/05/18 04:01:08;;;;;;;8.48;3.05;;;;;;;11.58;100.00;99182.63;4938523;28;20043;-77
2022/05/18 04:03:37;;;;;;;11.35;2.67;;;;;;;11.67;100.00;99198.25;4897350;29;20036;-77
2022/05/18 04:06:03;;;;;;;8.43;3.17;;;;;;;11.57;100.00;99196.78;4936275;29;20078;-76
2022/05/18 04:08:28;;;;;;;8.35;2.70;;;;;;;11.57;100.00;99209.16;4914366;29;20402;-77
2022/05/18 04:10:55;;;;;;;7.18;2.72;;;;;;;11.64;100.00;99211.81;4914378;29;20032;-77
2022/05/18 04:13:24;;;;;;;6.00;2.63;;;;;;;11.66;100.00;99215.84;4917938;29;20483;-77
2022/05/18 04:15:51;;;;;;;9.95;2.92;;;;;;;11.67;100.00;99214.03;4915693;29;20102;-76
2022/05/18 04:18:17;;;;;;;8.68;2.83;;;;;;;11.60;100.00;99219.25;4917774;29;20032;-77
2022/05/18 04:20:43;;;;;;;5.95;2.60;;;;;;;11.61;100.00;99220.09;4918274;29;20024;-77
2022/05/18 04:23:11;;;;;;;7.57;2.80;;;;;;;11.63;100.00;99224.13;4917052;29;20466;-78
2022/05/18 04:25:38;;;;;;;10.95;2.95;;;;;;;11.69;100.00;99225.16;4918238;29;20155;-77
2022/05/18 04:28:05;;;;;;;10.30;2.97;;;;;;;11.63;100.00;99221.50;4918133;29;20055;-78
2022/05/18 04:30:31;;;;;;;12.18;2.92;;;;;;;11.64;100.00;99217.84;4916289;29;20036;-77
2022/05/18 04:32:58;;;;;;;10.07;3.10;;;;;;;11.75;100.00;99224.38;4918048;29;20028;-77
2022/05/18 04:35:26;;;;;;;8.90;2.83;;;;;;;11.72;100.00;99214.25;4916907;29;20032;-77
2022/05/18 04:37:51;;;;;;;10.00;2.70;;;;;;;11.75;100.00;99218.31;4901013;29;20028;-78
2022/05/18 04:40:17;;;;;;;10.00;3.15;;;;;;;11.75;100.00;99216.47;4918049;29;20467;-77
2022/05/18 04:42:43;;;;;;;12.55;3.22;;;;;;;11.70;100.00;99211.00;4918021;29;20390;-77
2022/05/18 04:45:11;;;;;;;12.07;3.20;;;;;;;11.81;100.00;99207.81;4916353;29;20043;-77
2022/05/18 04:47:37;;;;;;;5.97;2.60;;;;;;;11.82;100.00;99209.44;4918051;29;20178;-77
2022/05/18 04:50:04;;;;;;;11.55;3.65;;;;;;;11.92;100.00;99216.13;4916611;29;20028;-78
2022/05/18 04:52:30;;;;;;;10.35;3.13;;;;;;;11.95;100.00;99207.81;4916290;29;20497;-77
2022/05/18 04:54:55;;;;;;;7.28;2.60;;;;;;;12.03;100.00;99220.84;4917677;29;20028;-77
2022/05/18 04:57:21;;;;;;;5.65;2.80;;;;;;;12.06;100.00;99223.06;4900302;29;20040;-77
2022/05/18 04:59:48;;;;;;;8.10;3.22;;;;;;;12.15;100.00;99236.84;4914219;29;20040;-77
2022/05/18 05:02:15;;;;;;;5.60;3.28;;;;;;;12.11;100.00;99231.16;4911468;29;20048;-77
2022/05/18 05:04:42;;;;;;;7.03;2.65;;;;;;;12.17;100.00;99236.63;4899696;29;20036;-78
2022/05/18 05:07:07;;;;;;;8.43;3.03;;;;;;;12.17;100.00;99241.88;4907171;29;20378;-77
2022/05/18 05:09:33;;;;;;;12.32;2.88;;;;;;;12.23;100.00;99247.16;4915916;29;20020;-78
2022/05/18 05:11:59;;;;;;;8.88;3.00;;;;;;;12.22;100.00;99244.75;4917657;29;20167;-79
2022/05/18 05:14:25;;;;;;;7.53;2.90;;;;;;;12.27;100.00;99247.59;4899908;29;20391;-77
2022/05/18 05:16:51;;;;;;;12.65;3.78;;;;;;;12.31;100.00;99248.00;4916397;29;20032;-77
2022/05/18 05:19:17;;;;;;;10.85;3.47;;;;;;;12.40;100.00;99241.53;4917189;29;20046;-77
2022/05/18 05:21:44;;;;;;;8.77;3.88;;;;;;;12.46;100.00;99242.56;4915858;29;20047;-77
2022/05/18 05:24:16;;;;;;;13.05;5.10;;;;;;;12.52;100.00;99245.19;4916015;29;20043;-76
2022/05/18 05:26:43;;;;;;;13.55;3.67;;;;;;;12.50;100.00;99239.31;4916982;29;20043;-77
2022/05/18 05:29:10;;;;;;;10.75;3.53;;;;;;;12.68;100.00;99243.97;4899526;29;20596;-77
2022/05/18 05:31:37;;;;;;;8.95;3.80;;;;;;;12.67;100.00;99246.78;4917093;29;20467;-77
2022/05/18 05:34:03;;;;;;;10.48;3.95;;;;;;;12.79;100.00;99250.44;4915395;29;20035;-76
2022/05/18 05:36:29;;;;;;;8.27;4.45;;;;;;;12.85;100.00;99254.88;4917117;29;20059;-78
2022/05/18 05:38:55;;;;;;;11.57;3.70;;;;;;;12.94;100.00;99265.22;4915105;29;20032;-78
2022/05/18 05:41:21;;;;;;;10.05;4.00;;;;;;;13.04;100.00;99262.19;4916412;29;20550;-79
2022/05/18 05:43:47;;;;;;;10.80;3.80;;;;;;;13.11;100.00;99266.44;4916621;29;20028;-79
2022/05/18 05:46:16;;;;;;;13.05;4.22;;;;;;;13.17;100.00;99272.72;4915717;29;20343;-78
2022/05/18 05:48:44;;;;;;;14.05;6.25;;;;;;;13.21;100.00;99268.66;4899543;29;20068;-83
2022/05/18 05:51:12;;;;;;;12.45;5.38;;;;;;;13.33;100.00;99275.91;4916160;29;20115;-80
2022/05/18 05:53:39;;;;;;;12.20;5.45;;;;;;;13.38;100.00;99276.91;4915624;29;20038;-80
2022/05/18 05:56:06;;;;;;;11.30;5.25;;;;;;;13.47;100.00;99285.44;4913519;29;20439;-80
2022/05/18 05:58:36;;;;;;;15.45;6.20;;;;;;;13.61;100.00;99293.31;4897943;29;20059;-80
2022/05/18 06:01:04;;;;;;;11.75;4.70;;;;;;;13.77;100.00;99297.31;4913550;29;20123;-79
2022/05/18 06:03:30;;;;;;;11.32;4.25;;;;;;;13.69;100.00;99301.00;4913467;29;20175;-80
2022/05/18 06:05:56;;;;;;;12.55;4.22;;;;;;;13.87;100.00;99305.59;4915396;29;20044;-80
2022/05/18 06:08:23;;;;;;;10.15;3.60;;;;;;;13.96;100.00;99306.97;4917457;29;20047;-80
2022/05/18 06:10:49;;;;;;;8.75;3.85;;;;;;;14.03;100.00;99301.66;4914725;29;20032;-79
2022/05/18 06:13:15;;;;;;;10.70;3.30;;;;;;;13.99;100.00;99311.81;4915026;29;20040;-80
2022/05/18 06:15:41;;;;;;;10.82;3.78;;;;;;;14.09;100.00;99314.00;4915976;29;20051;-80
2022/05/18 06:18:07;;;;;;;12.05;4.43;;;;;;;14.12;100.00;99305.66;4915247;29;20163;-81
2022/05/18 06:20:33;;;;;;;13.15;3.47;;;;;;;14.23;100.00;99317.38;4915499;29;20024;-80
2022/05/18 06:23:02;;;;;;;10.27;3.95;;;;;;;14.24;100.00;99313.72;4914145;29;20040;-81
2022/05/18 06:25:29;;;;;;;14.25;3.95;;;;;;;14.30;100.00;99317.34;4913533;29;20028;-80
2022/05/18 06:27:55;;;;;;;14.23;3.75;;;;;;;14.39;100.00;99315.28;4912906;29;20486;-80
2022/05/18 06:30:21;;;;;;;16.83;3.90;;;;;;;14.45;100.00;99321.53;4915537;29;20032;-81
2022/05/18 06:32:46;;;;;;;8.68;3.47;;;;;;;14.36;100.00;99319.16;4915736;29;20048;-81
2022/05/18 06:35:12;;;;;;;10.38;3.63;;;;;;;14.47;100.00;99322.13;4913419;29;20119;-82
2022/05/18 06:37:38;;;;;;;9.25;3.22;;;;;;;14.67;100.00;99330.72;4915253;29;20040;-82
2022/05/18 06:40:06;;;;;;;17.95;3.33;;;;;;;14.99;100.00;99319.34;4913954;29;20044;-81
2022/05/18 06:42:32;;;;;;;8.13;3.33;;;;;;;15.11;100.00;99325.53;4898443;29;20048;-80
2022/05/18 06:44:59;;;;;;;9.93;2.95;;;;;;;15.39;100.00;99324.25;4913232;29;20039;-81
2022/05/18 06:47:25;;;;;;;12.57;3.33;;;;;;;15.60;100.00;99324.84;4914803;29;20119;-80
2022/05/18 06:49:51;;;;;;;8.10;2.90;;;;;;;15.70;100.00;99319.03;4915094;29;20020;-81
2022/05/18 06:52:18;;;;;;;7.28;3.05;;;;;;;15.82;100.00;99335.81;4913880;29;20032;-81
2022/05/18 06:54:44;;;;;;;12.73;3.42;;;;;;;15.80;100.00;99326.47;4915163;29;20431;-78
2022/05/18 06:57:10;;;;;;;17.25;3.55;;;;;;;15.76;100.00;99328.75;4914024;29;20115;-80
2022/05/18 06:59:36;;;;;;;16.52;3.80;;;;;;;15.83;100.00;99324.19;4915125;29;20067;-83
2022/05/18 07:02:03;;;;;;;15.85;3.45;;;;;;;16.17;100.00;99330.94;4914015;29;20542;-82
2022/05/18 07:04:29;;;;;;;8.98;3.13;;;;;;;16.18;100.00;99336.00;4915038;29;20375;-79
2022/05/18 07:06:54;;;;;;;11.77;3.17;;;;;;;16.18;100.00;99335.22;4914019;29;20039;-77
2022/05/18 07:09:21;;;;;;;13.88;3.28;;;;;;;15.85;100.00;99334.56;4914885;29;20028;-78
2022/05/18 07:11:49;;;;;;;16.17;3.58;;;;;;;16.18;100.00;99340.50;4915368;29;20032;-79
2022/05/18 07:14:16;;;;;;;12.40;3.78;;;;;;;16.31;100.00;99340.34;4912643;29;20099;-78
2022/05/18 07:16:43;;;;;;;18.60;4.20;;;;;;;15.84;100.00;99346.19;4915226;29;20043;-79
2022/05/18 07:19:10;;;;;;;20.63;4.28;;;;;;;15.84;100.00;99348.84;4915060;29;20043;-78
2022/05/18 07:21:35;;;;;;;14.90;3.13;;;;;;;16.01;100.00;99351.72;4932262;29;20039;-78
2022/05/18 07:24:01;;;;;;;13.30;3.40;;;;;;;16.37;100.00;99357.97;4914162;29;20032;-78
2022/05/18 07:26:29;;;;;;;13.57;3.80;;;;;;;16.50;100.00;99348.19;4913677;29;20036;-78
2022/05/18 07:28:57;;;;;;;13.73;3.45;;;;;;;16.69;100.00;99357.69;4906733;29;20032;-78
2022/05/18 07:31:23;;;;;;;14.35;3.42;;;;;;;17.07;100.00;99355.75;4933925;29;20115;-77
2022/05/18 07:33:49;;;;;;;15.35;3.45;;;;;;;17.38;100.00;99352.97;4914498;29;20449;-77
2022/05/18 07:36:16;;;;;;;11.32;3.45;;;;;;;16.92;100.00;99360.63;4915004;29;20119;-76
2022/05/18 07:38:42;;;;;;;11.55;4.03;;;;;;;16.48;100.00;99364.34;4914233;29;20039;-77
2022/05/18 07:41:13;;;;;;;13.70;3.40;;;;;;;16.71;100.00;99362.78;4914868;29;20391;-77
2022/05/18 07:43:39;;;;;;;10.32;3.05;;;;;;;16.40;100.00;99351.41;4914608;29;20402;-77
2022/05/18 07:46:07;;;;;;;14.32;3.28;;;;;;;16.67;100.00;99362.44;4915426;29;20047;-77
2022/05/18 07:48:33;;;;;;;14.57;3.40;;;;;;;16.50;100.00;99369.41;4918678;29;20034;-77
2022/05/18 07:50:59;;;;;;;12.38;3.35;;;;;;;16.78;100.00;99363.50;4917765;29;20494;-77
2022/05/18 07:53:27;;;;;;;16.25;3.10;;;;;;;16.32;100.00;99368.44;4917636;29;20032;-77
2022/05/18 07:55:53;;;;;;;18.17;3.90;;;;;;;16.66;100.00;99368.75;4915354;29;20060;-77
2022/05/18 07:58:20;;;;;;;16.27;3.25;;;;;;;16.51;100.00;99368.41;4918329;29;20050;-76
2022/05/18 08:00:47;;;;;;;13.30;3.15;;;;;;;16.46;100.00;99366.41;4917987;29;20047;-77
2022/05/18 08:03:15;;;;;;;14.00;3.22;;;;;;;16.40;100.00;99354.88;4917157;29;20040;-77
2022/05/18 08:05:46;;;;;;;14.05;3.60;;;;;;;16.09;100.00;99364.63;4918651;29;20482;-77
2022/05/18 08:08:16;;;;;;;13.07;3.03;;;;;;;16.61;100.00;99360.69;4940555;29;20175;-78
2022/05/18 08:16:13;;;;;;;8.68;2.92;;;;;;;16.96;100.00;99364.44;4916582;29;20091;-77
2022/05/18 08:18:39;;;;;;;14.65;3.63;;;;;;;16.98;100.00;99368.53;4917527;29;20028;-75
2022/05/18 08:21:05;;;;;;;11.88;3.70;;;;;;;17.07;100.00;99373.47;4918086;29;20103;-78
2022/05/18 08:23:30;;;;;;;15.35;3.33;;;;;;;16.91;100.00;99367.81;4917181;29;20036;-78
2022/05/18 08:25:57;;;;;;;13.52;3.60;;;;;;;16.84;100.00;99375.03;4912035;29;20024;-77
2022/05/18 08:28:24;;;;;;;11.82;3.65;;;;;;;17.06;100.00;99370.03;4913822;29;20205;-76
2022/05/18 08:30:50;;;;;;;12.45;3.45;;;;;;;17.12;100.00;99370.97;4917794;29;20035;-77
2022/05/18 08:33:16;;;;;;;11.82;3.30;;;;;;;17.18;100.00;99375.34;4915186;29;20111;-78
2022/05/18 08:35:45;;;;;;;16.70;3.78;;;;;;;17.36;100.00;99373.63;4916931;29;20122;-78
2022/05/18 08:38:11;;;;;;;16.75;3.42;;;;;;;16.94;100.00;99377.94;4897336;29;20036;-78
2022/05/18 08:40:40;;;;;;;13.57;3.10;;;;;;;17.35;100.00;99385.28;4916959;29;20043;-78
2022/05/18 08:43:08;;;;;;;9.57;3.58;;;;;;;17.39;100.00;99383.78;4918505;29;20426;-79
2022/05/18 08:45:41;;;;;;;12.48;3.22;;;;;;;17.21;100.00;99380.19;4907227;29;20035;-79
2022/05/18 08:48:20;;;;;;;14.50;3.63;;;;;;;17.37;100.00;99380.53;4939385;29;20503;-79
2022/05/18 08:50:47;;;;;;;13.23;2.95;;;;;;;17.52;100.00;99385.38;4915853;29;20031;-80
2022/05/18 08:53:41;;;;;;;11.75;2.80;;;;;;;17.46;100.00;99395.06;4914654;29;20078;-80
2022/05/18 08:56:13;;;;;;;;;;;;;;;17.09;100.00;99392.63;4917111;29;20028;-80
2022/05/18 08:58:45;;;;;;;17.48;3.38;;;;;;;16.96;100.00;99386.47;4907118;29;19915;-79
2022/05/18 09:01:16;;;;;;;11.63;3.20;;;;;;;17.18;100.00;99391.25;4916370;29;20040;-80
2022/05/18 09:03:56;;;;;;;17.35;3.38;;;;;;;17.14;100.00;99376.84;4913940;29;20051;-79
2022/05/18 09:06:39;;;;;;;12.90;3.30;;;;;;;17.13;100.00;99383.19;4916667;29;20051;-79
2022/05/18 09:11:56;;;;;;;16.08;2.92;;;;;;;17.12;100.00;99392.19;4917581;29;20055;-80
2022/05/18 09:14:24;;;;;;;17.13;3.35;;;;;;;17.46;100.00;99373.84;4939387;29;20032;-80
2022/05/18 09:16:53;;;;;;;11.68;2.50;;;;;;;17.30;98.58;99388.63;4916036;29;20040;-79
2022/05/18 09:19:36;;;;;;;12.45;3.10;;;;;;;17.89;98.74;99386.97;4915356;29;20040;-80
2022/05/18 09:22:22;;;;;;;10.93;3.42;;;;;;;18.24;95.88;99386.88;4915985;29;20046;-80
2022/05/18 09:25:19;;;;;;;11.60;3.10;;;;;;;18.92;95.68;99383.56;4915730;29;20044;-80
2022/05/18 09:28:02;;;;;;;12.35;3.08;;;;;;;19.32;95.60;99394.31;4906298;29;20423;-79
2022/05/18 09:30:33;;;;;;;11.38;3.22;;;;;;;19.51;95.06;99392.97;4916557;29;20028;-80
2022/05/18 09:33:35;;;;;;;14.02;3.20;;;;;;;19.93;97.42;99391.66;4924700;29;20029;-80
2022/05/18 09:36:17;;;;;;;8.38;2.95;;;;;;;20.03;95.06;99393.66;4915636;29;20039;-80
2022/05/18 09:38:50;;;;;;;14.73;3.53;;;;;;;20.21;92.33;99397.88;4915590;29;20363;-80
2022/05/18 09:41:19;;;;;;;11.27;3.70;;;;;;;20.63;91.13;99388.41;4935845;29;20047;-80
2022/05/18 09:44:13;;;;;;;9.18;4.47;;;;;;;21.05;88.48;99386.16;4942464;28;20552;-82
2022/05/18 09:46:42;;;;;;;7.85;3.42;;;;;;;20.92;84.57;99396.19;4904182;29;20099;-81
2022/05/18 09:49:14;;;;;;;8.48;4.07;;;;;;;21.06;85.76;99403.78;4916906;29;20051;-82
2022/05/18 09:51:41;;;;;;;7.38;3.88;;;;;;;20.92;86.20;99409.53;4916741;29;20040;-79
2022/05/18 09:54:07;;;;;;;10.38;4.30;;;;;;;21.30;82.88;99403.41;4915667;29;20028;-79
2022/05/18 09:56:44;;;;;;;12.60;4.35;;;;;;;21.56;82.45;99404.38;4915500;29;20083;-80
2022/05/18 09:59:19;;;;;;;11.10;4.57;;;;;;;21.41;82.94;99394.38;4916422;29;20493;-80
2022/05/18 10:10:08;;;;;;;11.93;4.25;;;;;;;20.40;84.94;99385.00;4915656;29;20487;-80
2022/05/18 10:12:46;;;;;;;13.20;4.45;;;;;;;20.56;86.53;99371.81;4915362;29;20510;-80
2022/05/18 10:15:24;;;;;;;9.07;4.03;;;;;;;20.65;86.47;99388.16;4914872;29;20039;-80
2022/05/18 10:17:54;;;;;;;10.07;4.18;;;;;;;20.57;85.13;99381.44;4936323;29;20483;-80
2022/05/18 10:20:28;;;;;;;11.10;4.18;;;;;;;20.01;85.26;99382.44;4915576;29;20032;-81
2022/05/18 10:22:55;;;;;;;8.60;3.67;;;;;;;20.70;88.89;99385.53;4915883;29;20028;-80
2022/05/18 10:25:42;;;;;;;9.55;4.20;;;;;;;20.77;88.73;99391.50;4915813;29;20076;-80
2022/05/18 10:28:28;;;;;;;10.82;4.93;;;;;;;20.63;84.51;99385.75;4916221;29;20036;-80
2022/05/18 10:30:58;;;;;;;13.90;4.13;;;;;;;20.81;84.39;99391.81;4901718;29;20119;-80
2022/05/18 10:33:33;;;;;;;10.27;4.00;;;;;;;20.73;86.00;99395.69;4940829;28;20087;-80
2022/05/18 10:36:11;;;;;;;13.25;4.57;;;;;;;20.71;84.86;99397.03;4915326;29;20036;-80
2022/05/18 10:38:38;;;;;;;12.93;4.80;;;;;;;20.40;83.87;99371.66;4914401;29;20088;-80
2022/05/18 10:41:03;;;;;;;9.93;4.40;;;;;;;20.46;83.12;99377.06;4937550;28;20123;-80
2022/05/18 10:43:43;;;;;;;10.13;4.47;;;;;;;20.66;83.80;99376.44;4915504;29;20177;-81
2022/05/18 10:46:15;;;;;;;11.38;3.88;;;;;;;20.63;83.67;99383.09;4932859;28;20032;-80
2022/05/18 10:48:56;;;;;;;6.20;4.20;;;;;;;20.74;81.68;99377.84;4914376;29;20171;-80
2022/05/18 10:51:44;;;;;;;11.20;4.25;;;;;;;20.70;79.43;99364.22;4940135;29;20028;-80
2022/05/18 10:54:22;;;;;;;11.52;4.50;;;;;;;20.91;83.75;99370.56;4909416;29;20056;-80
2022/05/18 10:56:48;;;;;;;8.80;4.15;;;;;;;20.83;81.83;99377.16;4915009;29;20475;-82
2022/05/18 10:59:40;;;;;;;16.67;4.72;;;;;;;21.03;84.07;99380.22;4913032;29;20483;-82
2022/05/18 11:02:34;;;;;;;10.68;4.68;;;;;;;20.80;80.35;99374.19;4914202;29;20505;-80
2022/05/18 11:05:15;;;;;;;10.38;4.50;;;;;;;20.79;83.71;99380.56;4912942;29;20116;-81
2022/05/18 11:07:41;;;;;;;9.45;4.75;;;;;;;20.98;81.81;99376.47;4913945;29;20055;-81
2022/05/18 11:10:08;;;;;;;16.38;4.78;;;;;;;21.34;84.36;99369.78;4914834;29;20047;-81
2022/05/18 11:13:04;;;;;;;12.23;5.13;;;;;;;21.42;85.74;99363.97;4912910;29;20483;-81
2022/05/18 11:15:43;;;;;;;11.60;4.53;;;;;;;21.54;84.17;99367.22;4914550;29;20032;-81
2022/05/18 11:18:31;;;;;;;9.75;4.65;;;;;;;21.39;81.83;99369.81;4913193;29;20133;-81
2022/05/18 11:21:16;;;;;;;10.05;4.40;;;;;;;21.60;81.86;99354.69;4897215;29;20033;-81
2022/05/18 11:23:45;;;;;;;14.32;5.65;;;;;;;21.48;82.99;99365.59;4913845;29;20090;-81
2022/05/18 11:26:40;;;;;;;10.18;4.47;;;;;;;21.40;83.07;99366.88;4916687;29;20450;-82
2022/05/18 11:29:24;;;;;;;13.88;5.50;;;;;;;21.47;83.34;99363.16;4913560;29;20028;-81
2022/05/18 11:32:17;;;;;;;9.25;4.68;;;;;;;21.48;83.07;99368.25;4914763;29;20087;-81
2022/05/18 11:34:54;;;;;;;13.38;5.70;;;;;;;21.42;83.75;99365.81;4914725;29;20126;-81
2022/05/18 11:37:38;;;;;;;11.40;5.10;;;;;;;21.40;83.39;99361.53;4914599;29;20063;-81
2022/05/18 11:40:31;;;;;;;10.80;5.15;;;;;;;21.67;84.40;99362.50;4897152;29;20036;-82
2022/05/18 11:43:33;;;;;;;8.93;4.75;;;;;;;21.80;82.44;99354.00;4916370;29;20048;-82
2022/05/18 11:46:14;;;;;;;8.18;4.75;;;;;;;21.92;80.77;99345.78;4918586;29;20028;-81
2022/05/18 11:48:58;;;;;;;12.18;5.40;;;;;;;22.04;80.65;99348.22;4912180;29;20040;-82
2022/05/18 11:51:55;;;;;;;11.20;5.13;;;;;;;22.02;81.54;99346.88;4914528;29;20051;-82
2022/05/18 11:54:43;;;;;;;12.65;5.00;;;;;;;22.04;81.61;99347.41;4914379;29;20446;-82
2022/05/18 11:57:24;;;;;;;10.45;4.90;;;;;;;21.83;79.45;99326.78;4913880;29;20406;-81
2022/05/18 12:00:09;;;;;;;11.70;5.68;;;;;;;21.99;80.47;99334.03;4933980;28;20036;-82